Red Wing, Minnesota
Current Conditions -  °F | °C
As of 7:11 PM on Friday 28 Nov 2014 (Local Time) from KRGK Reporting Station
Scattered Clouds Scattered Clouds  
Wind Chill: 15°   Ceiling: Unl
Heat Index: 25°   Visibility: 10mi
Dew Point: 18°   Wind: 9mph
Humidity: 74%   Direction: 130°SE
Pressure: 29.81"   Gusts: NA
Location:  44.57°N, 92.53°W
Report Text: KRGK 290111Z AUTO 13008KT 10SM SCT120 M04/M08 A2981 RMK AO2
Loading
Personal Weather Stations






























Interactive Weather Map New forecast layout! Learn more

10-Day Weather Forecast

Advertisements
Track Severe Weather on mobile